sensor_id;sensor_type;location;lat;lon;timestamp;P1;durP1;ratioP1;P2;durP2;ratioP2
45402;SDS011;47427;51.976;5.326;2023-05-07T00:02:18;29.63;;;27.27;;
45402;SDS011;47427;51.976;5.326;2023-05-07T00:05:41;30.00;;;27.42;;
45402;SDS011;47427;51.976;5.326;2023-05-07T00:09:03;28.30;;;25.98;;
45402;SDS011;47427;51.976;5.326;2023-05-07T00:12:26;28.30;;;25.80;;
45402;SDS011;47427;51.976;5.326;2023-05-07T00:15:49;28.77;;;26.38;;
45402;SDS011;47427;51.976;5.326;2023-05-07T00:19:10;30.00;;;27.48;;
45402;SDS011;47427;51.976;5.326;2023-05-07T00:22:52;29.55;;;27.02;;
45402;SDS011;47427;51.976;5.326;2023-05-07T00:26:14;29.77;;;27.23;;
45402;SDS011;47427;51.976;5.326;2023-05-07T00:29:39;28.90;;;26.63;;
45402;SDS011;47427;51.976;5.326;2023-05-07T00:33:02;27.98;;;26.08;;
45402;SDS011;47427;51.976;5.326;2023-05-07T00:36:23;29.52;;;27.33;;
45402;SDS011;47427;51.976;5.326;2023-05-07T00:39:47;29.23;;;26.92;;
45402;SDS011;47427;51.976;5.326;2023-05-07T00:43:09;28.63;;;26.55;;
45402;SDS011;47427;51.976;5.326;2023-05-07T00:46:31;28.52;;;26.38;;
45402;SDS011;47427;51.976;5.326;2023-05-07T00:49:55;27.33;;;25.42;;
45402;SDS011;47427;51.976;5.326;2023-05-07T00:53:18;27.25;;;25.35;;
45402;SDS011;47427;51.976;5.326;2023-05-07T00:56:41;28.13;;;26.00;;
45402;SDS011;47427;51.976;5.326;2023-05-07T01:00:04;27.60;;;25.42;;
45402;SDS011;47427;51.976;5.326;2023-05-07T01:03:32;27.58;;;25.58;;
45402;SDS011;47427;51.976;5.326;2023-05-07T01:06:55;28.52;;;26.40;;
45402;SDS011;47427;51.976;5.326;2023-05-07T01:10:38;27.58;;;25.65;;
45402;SDS011;47427;51.976;5.326;2023-05-07T01:14:04;27.80;;;25.65;;
45402;SDS011;47427;51.976;5.326;2023-05-07T01:17:29;31.45;;;28.88;;
45402;SDS011;47427;51.976;5.326;2023-05-07T01:20:54;29.73;;;27.52;;
45402;SDS011;47427;51.976;5.326;2023-05-07T01:24:21;30.05;;;27.73;;
45402;SDS011;47427;51.976;5.326;2023-05-07T01:27:43;29.08;;;26.85;;
45402;SDS011;47427;51.976;5.326;2023-05-07T01:31:06;30.17;;;27.98;;
45402;SDS011;47427;51.976;5.326;2023-05-07T01:34:30;29.40;;;27.17;;
45402;SDS011;47427;51.976;5.326;2023-05-07T01:37:55;31.77;;;29.03;;
45402;SDS011;47427;51.976;5.326;2023-05-07T01:41:18;30.08;;;27.90;;
45402;SDS011;47427;51.976;5.326;2023-05-07T01:44:41;31.65;;;29.13;;
45402;SDS011;47427;51.976;5.326;2023-05-07T01:48:03;29.83;;;27.58;;
45402;SDS011;47427;51.976;5.326;2023-05-07T01:51:26;30.40;;;27.77;;
45402;SDS011;47427;51.976;5.326;2023-05-07T01:54:50;28.83;;;26.65;;
45402;SDS011;47427;51.976;5.326;2023-05-07T01:58:31;29.10;;;26.90;;
45402;SDS011;47427;51.976;5.326;2023-05-07T02:01:53;30.88;;;28.42;;
45402;SDS011;47427;51.976;5.326;2023-05-07T02:05:15;34.70;;;30.20;;
45402;SDS011;47427;51.976;5.326;2023-05-07T02:08:40;32.30;;;28.92;;
45402;SDS011;47427;51.976;5.326;2023-05-07T02:12:05;31.20;;;28.77;;
45402;SDS011;47427;51.976;5.326;2023-05-07T02:15:27;33.47;;;30.88;;
45402;SDS011;47427;51.976;5.326;2023-05-07T02:18:51;32.92;;;30.23;;
45402;SDS011;47427;51.976;5.326;2023-05-07T02:22:13;32.42;;;29.95;;
45402;SDS011;47427;51.976;5.326;2023-05-07T02:25:35;31.35;;;28.95;;
45402;SDS011;47427;51.976;5.326;2023-05-07T02:28:58;31.20;;;28.67;;
45402;SDS011;47427;51.976;5.326;2023-05-07T02:32:20;33.17;;;30.83;;
45402;SDS011;47427;51.976;5.326;2023-05-07T02:35:41;32.33;;;29.70;;
45402;SDS011;47427;51.976;5.326;2023-05-07T02:39:06;32.78;;;30.13;;
45402;SDS011;47427;51.976;5.326;2023-05-07T02:42:27;33.08;;;30.48;;
45402;SDS011;47427;51.976;5.326;2023-05-07T02:45:59;32.45;;;30.10;;
45402;SDS011;47427;51.976;5.326;2023-05-07T02:49:27;33.35;;;30.80;;
45402;SDS011;47427;51.976;5.326;2023-05-07T02:52:50;33.22;;;30.40;;
45402;SDS011;47427;51.976;5.326;2023-05-07T02:56:13;32.78;;;30.20;;
45402;SDS011;47427;51.976;5.326;2023-05-07T02:59:35;34.90;;;31.92;;
45402;SDS011;47427;51.976;5.326;2023-05-07T03:02:57;35.08;;;32.33;;
45402;SDS011;47427;51.976;5.326;2023-05-07T03:06:20;35.03;;;32.03;;
45402;SDS011;47427;51.976;5.326;2023-05-07T03:09:42;33.78;;;31.15;;
45402;SDS011;47427;51.976;5.326;2023-05-07T03:13:05;35.10;;;32.30;;
45402;SDS011;47427;51.976;5.326;2023-05-07T03:16:26;35.55;;;32.60;;
45402;SDS011;47427;51.976;5.326;2023-05-07T03:19:49;36.00;;;33.10;;
45402;SDS011;47427;51.976;5.326;2023-05-07T03:23:15;37.10;;;33.65;;
45402;SDS011;47427;51.976;5.326;2023-05-07T03:26:37;38.03;;;34.67;;
45402;SDS011;47427;51.976;5.326;2023-05-07T03:30:00;39.10;;;36.08;;
45402;SDS011;47427;51.976;5.326;2023-05-07T03:33:23;37.95;;;34.67;;
45402;SDS011;47427;51.976;5.326;2023-05-07T03:36:44;39.90;;;36.63;;
45402;SDS011;47427;51.976;5.326;2023-05-07T03:40:07;38.10;;;35.28;;
45402;SDS011;47427;51.976;5.326;2023-05-07T03:43:38;38.47;;;35.42;;
45402;SDS011;47427;51.976;5.326;2023-05-07T03:47:03;37.93;;;34.93;;
45402;SDS011;47427;51.976;5.326;2023-05-07T03:50:27;37.10;;;34.25;;
45402;SDS011;47427;51.976;5.326;2023-05-07T03:53:48;43.38;;;39.85;;
45402;SDS011;47427;51.976;5.326;2023-05-07T03:57:11;44.33;;;40.33;;
45402;SDS011;47427;51.976;5.326;2023-05-07T04:00:34;41.95;;;38.20;;
45402;SDS011;47427;51.976;5.326;2023-05-07T04:04:06;43.95;;;40.35;;
45402;SDS011;47427;51.976;5.326;2023-05-07T04:07:30;41.78;;;38.05;;
45402;SDS011;47427;51.976;5.326;2023-05-07T04:10:56;43.50;;;39.88;;
45402;SDS011;47427;51.976;5.326;2023-05-07T04:14:23;43.80;;;40.10;;
45402;SDS011;47427;51.976;5.326;2023-05-07T04:17:46;45.50;;;41.80;;
45402;SDS011;47427;51.976;5.326;2023-05-07T04:21:15;44.63;;;40.90;;
45402;SDS011;47427;51.976;5.326;2023-05-07T04:24:41;46.05;;;42.20;;
45402;SDS011;47427;51.976;5.326;2023-05-07T04:28:04;44.50;;;40.83;;
45402;SDS011;47427;51.976;5.326;2023-05-07T04:31:28;44.15;;;40.65;;
45402;SDS011;47427;51.976;5.326;2023-05-07T04:34:50;45.92;;;41.50;;
45402;SDS011;47427;51.976;5.326;2023-05-07T04:38:12;44.55;;;40.33;;
45402;SDS011;47427;51.976;5.326;2023-05-07T04:41:35;43.72;;;39.80;;
45402;SDS011;47427;51.976;5.326;2023-05-07T04:45:01;42.58;;;39.15;;
45402;SDS011;47427;51.976;5.326;2023-05-07T04:48:27;43.17;;;39.30;;
45402;SDS011;47427;51.976;5.326;2023-05-07T04:51:50;45.00;;;40.95;;
45402;SDS011;47427;51.976;5.326;2023-05-07T04:55:15;42.70;;;39.20;;
45402;SDS011;47427;51.976;5.326;2023-05-07T04:58:39;43.75;;;40.10;;
45402;SDS011;47427;51.976;5.326;2023-05-07T05:02:02;43.67;;;40.17;;
45402;SDS011;47427;51.976;5.326;2023-05-07T05:05:26;42.80;;;39.35;;
45402;SDS011;47427;51.976;5.326;2023-05-07T05:08:50;43.35;;;39.65;;
45402;SDS011;47427;51.976;5.326;2023-05-07T05:12:11;41.80;;;38.50;;
45402;SDS011;47427;51.976;5.326;2023-05-07T05:15:34;43.92;;;40.13;;
45402;SDS011;47427;51.976;5.326;2023-05-07T05:18:56;41.65;;;38.38;;
45402;SDS011;47427;51.976;5.326;2023-05-07T05:22:19;41.95;;;38.65;;
45402;SDS011;47427;51.976;5.326;2023-05-07T05:25:43;43.40;;;39.58;;
45402;SDS011;47427;51.976;5.326;2023-05-07T05:29:07;42.78;;;39.28;;
45402;SDS011;47427;51.976;5.326;2023-05-07T05:35:56;41.80;;;38.55;;
45402;SDS011;47427;51.976;5.326;2023-05-07T05:39:18;42.72;;;39.20;;
45402;SDS011;47427;51.976;5.326;2023-05-07T05:42:41;41.50;;;38.03;;
45402;SDS011;47427;51.976;5.326;2023-05-07T05:46:03;43.55;;;39.95;;
45402;SDS011;47427;51.976;5.326;2023-05-07T05:49:27;43.83;;;40.20;;
45402;SDS011;47427;51.976;5.326;2023-05-07T05:52:50;45.58;;;41.50;;
45402;SDS011;47427;51.976;5.326;2023-05-07T05:56:13;44.78;;;40.63;;
45402;SDS011;47427;51.976;5.326;2023-05-07T05:59:36;43.70;;;40.03;;
45402;SDS011;47427;51.976;5.326;2023-05-07T06:02:59;43.88;;;40.25;;
45402;SDS011;47427;51.976;5.326;2023-05-07T06:06:21;45.95;;;41.92;;
45402;SDS011;47427;51.976;5.326;2023-05-07T06:09:43;45.47;;;41.80;;
45402;SDS011;47427;51.976;5.326;2023-05-07T06:13:06;45.88;;;42.00;;
45402;SDS011;47427;51.976;5.326;2023-05-07T06:16:31;46.28;;;41.97;;
45402;SDS011;47427;51.976;5.326;2023-05-07T06:19:54;46.20;;;42.50;;
45402;SDS011;47427;51.976;5.326;2023-05-07T06:23:17;44.97;;;41.28;;
45402;SDS011;47427;51.976;5.326;2023-05-07T06:26:40;43.60;;;40.30;;
45402;SDS011;47427;51.976;5.326;2023-05-07T06:30:03;44.00;;;40.30;;
45402;SDS011;47427;51.976;5.326;2023-05-07T06:33:26;46.50;;;42.53;;
45402;SDS011;47427;51.976;5.326;2023-05-07T06:36:48;43.95;;;40.17;;
45402;SDS011;47427;51.976;5.326;2023-05-07T06:40:21;43.47;;;39.75;;
45402;SDS011;47427;51.976;5.326;2023-05-07T06:43:43;41.92;;;38.53;;
45402;SDS011;47427;51.976;5.326;2023-05-07T06:47:19;44.38;;;40.70;;
45402;SDS011;47427;51.976;5.326;2023-05-07T06:51:00;44.83;;;40.78;;
45402;SDS011;47427;51.976;5.326;2023-05-07T06:54:24;43.08;;;39.60;;
45402;SDS011;47427;51.976;5.326;2023-05-07T06:57:47;42.80;;;39.15;;
45402;SDS011;47427;51.976;5.326;2023-05-07T07:01:10;43.38;;;39.63;;
45402;SDS011;47427;51.976;5.326;2023-05-07T07:04:33;42.65;;;39.15;;
45402;SDS011;47427;51.976;5.326;2023-05-07T07:08:00;41.20;;;37.95;;
45402;SDS011;47427;51.976;5.326;2023-05-07T07:11:23;40.88;;;37.58;;
45402;SDS011;47427;51.976;5.326;2023-05-07T07:14:45;40.03;;;36.55;;
45402;SDS011;47427;51.976;5.326;2023-05-07T07:18:09;39.60;;;36.20;;
45402;SDS011;47427;51.976;5.326;2023-05-07T07:21:32;41.92;;;38.47;;
45402;SDS011;47427;51.976;5.326;2023-05-07T07:24:55;40.65;;;37.40;;
45402;SDS011;47427;51.976;5.326;2023-05-07T07:28:20;40.30;;;37.10;;
45402;SDS011;47427;51.976;5.326;2023-05-07T07:31:43;40.40;;;37.05;;
45402;SDS011;47427;51.976;5.326;2023-05-07T07:35:06;39.20;;;36.10;;
45402;SDS011;47427;51.976;5.326;2023-05-07T07:38:30;41.55;;;38.13;;
45402;SDS011;47427;51.976;5.326;2023-05-07T07:41:51;39.63;;;36.53;;
45402;SDS011;47427;51.976;5.326;2023-05-07T07:45:15;39.85;;;36.42;;
45402;SDS011;47427;51.976;5.326;2023-05-07T07:48:40;40.03;;;36.72;;
45402;SDS011;47427;51.976;5.326;2023-05-07T07:52:02;40.78;;;37.58;;
45402;SDS011;47427;51.976;5.326;2023-05-07T07:55:27;40.95;;;37.65;;
45402;SDS011;47427;51.976;5.326;2023-05-07T07:58:49;41.50;;;38.10;;
45402;SDS011;47427;51.976;5.326;2023-05-07T08:02:12;39.08;;;36.15;;
45402;SDS011;47427;51.976;5.326;2023-05-07T08:05:35;38.95;;;35.92;;
45402;SDS011;47427;51.976;5.326;2023-05-07T08:08:59;38.03;;;35.28;;
45402;SDS011;47427;51.976;5.326;2023-05-07T08:12:22;39.15;;;36.05;;
45402;SDS011;47427;51.976;5.326;2023-05-07T08:15:43;38.85;;;35.83;;
45402;SDS011;47427;51.976;5.326;2023-05-07T08:19:07;39.38;;;36.17;;
45402;SDS011;47427;51.976;5.326;2023-05-07T08:22:30;38.83;;;35.63;;
45402;SDS011;47427;51.976;5.326;2023-05-07T08:25:52;37.30;;;34.58;;
45402;SDS011;47427;51.976;5.326;2023-05-07T08:29:15;39.25;;;36.15;;
45402;SDS011;47427;51.976;5.326;2023-05-07T08:32:38;37.28;;;34.70;;
45402;SDS011;47427;51.976;5.326;2023-05-07T08:36:00;37.00;;;34.20;;
45402;SDS011;47427;51.976;5.326;2023-05-07T08:39:23;38.42;;;35.20;;
45402;SDS011;47427;51.976;5.326;2023-05-07T08:42:48;41.05;;;37.63;;
45402;SDS011;47427;51.976;5.326;2023-05-07T08:49:45;39.05;;;36.05;;
45402;SDS011;47427;51.976;5.326;2023-05-07T08:53:08;37.85;;;34.78;;
45402;SDS011;47427;51.976;5.326;2023-05-07T08:56:32;36.90;;;34.15;;
45402;SDS011;47427;51.976;5.326;2023-05-07T09:00:14;36.85;;;33.83;;
45402;SDS011;47427;51.976;5.326;2023-05-07T09:03:38;34.53;;;31.90;;
45402;SDS011;47427;51.976;5.326;2023-05-07T09:07:02;34.78;;;32.38;;
45402;SDS011;47427;51.976;5.326;2023-05-07T09:10:28;35.72;;;32.97;;
45402;SDS011;47427;51.976;5.326;2023-05-07T09:13:54;36.45;;;33.55;;
45402;SDS011;47427;51.976;5.326;2023-05-07T09:17:20;34.28;;;31.92;;
45402;SDS011;47427;51.976;5.326;2023-05-07T09:20:42;35.10;;;31.70;;
45402;SDS011;47427;51.976;5.326;2023-05-07T09:24:04;32.35;;;29.95;;
45402;SDS011;47427;51.976;5.326;2023-05-07T09:27:30;31.13;;;28.85;;
45402;SDS011;47427;51.976;5.326;2023-05-07T09:30:53;31.95;;;29.55;;
45402;SDS011;47427;51.976;5.326;2023-05-07T09:34:18;32.25;;;29.77;;
45402;SDS011;47427;51.976;5.326;2023-05-07T09:37:42;32.15;;;29.85;;
45402;SDS011;47427;51.976;5.326;2023-05-07T09:41:11;31.23;;;29.13;;
45402;SDS011;47427;51.976;5.326;2023-05-07T09:44:47;29.48;;;27.10;;
45402;SDS011;47427;51.976;5.326;2023-05-07T09:48:13;28.83;;;26.88;;
45402;SDS011;47427;51.976;5.326;2023-05-07T09:51:39;29.35;;;27.35;;
45402;SDS011;47427;51.976;5.326;2023-05-07T09:55:08;29.55;;;27.17;;
45402;SDS011;47427;51.976;5.326;2023-05-07T09:58:31;27.75;;;25.60;;
45402;SDS011;47427;51.976;5.326;2023-05-07T10:01:57;27.90;;;25.67;;
45402;SDS011;47427;51.976;5.326;2023-05-07T10:05:22;29.13;;;26.98;;
45402;SDS011;47427;51.976;5.326;2023-05-07T10:08:45;27.50;;;25.58;;
45402;SDS011;47427;51.976;5.326;2023-05-07T10:12:08;29.30;;;27.30;;
45402;SDS011;47427;51.976;5.326;2023-05-07T10:15:30;28.13;;;26.13;;
45402;SDS011;47427;51.976;5.326;2023-05-07T10:22:20;28.00;;;25.98;;
45402;SDS011;47427;51.976;5.326;2023-05-07T10:25:43;27.38;;;25.17;;
45402;SDS011;47427;51.976;5.326;2023-05-07T10:29:15;26.98;;;25.13;;
45402;SDS011;47427;51.976;5.326;2023-05-07T10:32:56;28.42;;;26.23;;
45402;SDS011;47427;51.976;5.326;2023-05-07T10:36:27;27.05;;;24.92;;
45402;SDS011;47427;51.976;5.326;2023-05-07T10:39:49;27.38;;;25.27;;
45402;SDS011;47427;51.976;5.326;2023-05-07T10:43:10;27.30;;;25.20;;
45402;SDS011;47427;51.976;5.326;2023-05-07T10:46:39;26.80;;;24.67;;
45402;SDS011;47427;51.976;5.326;2023-05-07T10:53:34;27.15;;;25.00;;
45402;SDS011;47427;51.976;5.326;2023-05-07T11:01:16;25.15;;;23.35;;
45402;SDS011;47427;51.976;5.326;2023-05-07T11:05:28;24.33;;;22.35;;
45402;SDS011;47427;51.976;5.326;2023-05-07T11:09:03;24.95;;;23.25;;
45402;SDS011;47427;51.976;5.326;2023-05-07T11:16:03;25.42;;;23.38;;
45402;SDS011;47427;51.976;5.326;2023-05-07T11:19:47;26.75;;;24.85;;
45402;SDS011;47427;51.976;5.326;2023-05-07T11:27:22;22.58;;;21.17;;
45402;SDS011;47427;51.976;5.326;2023-05-07T11:30:46;22.42;;;20.85;;
45402;SDS011;47427;51.976;5.326;2023-05-07T11:34:12;21.70;;;20.40;;
45402;SDS011;47427;51.976;5.326;2023-05-07T11:37:59;21.95;;;20.50;;
45402;SDS011;47427;51.976;5.326;2023-05-07T11:41:35;21.00;;;19.60;;
45402;SDS011;47427;51.976;5.326;2023-05-07T11:44:59;21.23;;;19.88;;
45402;SDS011;47427;51.976;5.326;2023-05-07T11:48:22;21.20;;;19.90;;
45402;SDS011;47427;51.976;5.326;2023-05-07T11:51:43;21.83;;;20.10;;
45402;SDS011;47427;51.976;5.326;2023-05-07T11:55:07;21.13;;;19.73;;
45402;SDS011;47427;51.976;5.326;2023-05-07T11:58:30;22.70;;;21.02;;
45402;SDS011;47427;51.976;5.326;2023-05-07T12:01:52;22.75;;;21.00;;
45402;SDS011;47427;51.976;5.326;2023-05-07T12:05:37;20.38;;;19.08;;
45402;SDS011;47427;51.976;5.326;2023-05-07T12:09:02;22.48;;;20.88;;
45402;SDS011;47427;51.976;5.326;2023-05-07T12:12:24;21.73;;;20.15;;
45402;SDS011;47427;51.976;5.326;2023-05-07T12:15:50;21.30;;;19.77;;
45402;SDS011;47427;51.976;5.326;2023-05-07T12:19:13;20.70;;;19.30;;
45402;SDS011;47427;51.976;5.326;2023-05-07T12:22:36;21.25;;;19.75;;
45402;SDS011;47427;51.976;5.326;2023-05-07T12:25:59;23.25;;;21.48;;
45402;SDS011;47427;51.976;5.326;2023-05-07T12:29:22;23.35;;;21.75;;
45402;SDS011;47427;51.976;5.326;2023-05-07T12:32:45;23.60;;;22.00;;
45402;SDS011;47427;51.976;5.326;2023-05-07T12:36:08;24.25;;;22.45;;
45402;SDS011;47427;51.976;5.326;2023-05-07T12:39:32;24.08;;;22.45;;
45402;SDS011;47427;51.976;5.326;2023-05-07T12:42:55;23.13;;;21.23;;
45402;SDS011;47427;51.976;5.326;2023-05-07T12:46:18;24.40;;;22.58;;
45402;SDS011;47427;51.976;5.326;2023-05-07T12:49:40;23.50;;;21.88;;
45402;SDS011;47427;51.976;5.326;2023-05-07T12:53:04;23.58;;;22.05;;
45402;SDS011;47427;51.976;5.326;2023-05-07T12:56:30;25.00;;;23.07;;
45402;SDS011;47427;51.976;5.326;2023-05-07T12:59:57;23.52;;;21.73;;
45402;SDS011;47427;51.976;5.326;2023-05-07T13:03:24;23.52;;;21.58;;
45402;SDS011;47427;51.976;5.326;2023-05-07T13:06:53;23.63;;;21.55;;
45402;SDS011;47427;51.976;5.326;2023-05-07T13:10:16;24.30;;;22.42;;
45402;SDS011;47427;51.976;5.326;2023-05-07T13:13:58;24.75;;;22.83;;
45402;SDS011;47427;51.976;5.326;2023-05-07T13:17:20;25.27;;;23.27;;
45402;SDS011;47427;51.976;5.326;2023-05-07T13:20:43;27.23;;;24.75;;
45402;SDS011;47427;51.976;5.326;2023-05-07T13:24:05;27.58;;;25.52;;
45402;SDS011;47427;51.976;5.326;2023-05-07T13:27:28;27.70;;;25.10;;
45402;SDS011;47427;51.976;5.326;2023-05-07T13:30:52;29.20;;;26.80;;
45402;SDS011;47427;51.976;5.326;2023-05-07T13:34:15;28.30;;;26.15;;
45402;SDS011;47427;51.976;5.326;2023-05-07T13:37:37;27.17;;;25.17;;
45402;SDS011;47427;51.976;5.326;2023-05-07T13:40:59;24.98;;;22.98;;
45402;SDS011;47427;51.976;5.326;2023-05-07T13:44:21;25.73;;;23.63;;
45402;SDS011;47427;51.976;5.326;2023-05-07T13:47:45;25.52;;;23.50;;
45402;SDS011;47427;51.976;5.326;2023-05-07T13:51:07;25.65;;;23.85;;
45402;SDS011;47427;51.976;5.326;2023-05-07T13:54:30;24.42;;;22.60;;
45402;SDS011;47427;51.976;5.326;2023-05-07T13:57:59;23.17;;;21.58;;
45402;SDS011;47427;51.976;5.326;2023-05-07T14:01:23;23.38;;;21.55;;
45402;SDS011;47427;51.976;5.326;2023-05-07T14:04:46;22.05;;;20.50;;
45402;SDS011;47427;51.976;5.326;2023-05-07T14:08:08;22.85;;;21.15;;
45402;SDS011;47427;51.976;5.326;2023-05-07T14:11:31;22.70;;;20.70;;
45402;SDS011;47427;51.976;5.326;2023-05-07T14:14:54;22.58;;;20.80;;
45402;SDS011;47427;51.976;5.326;2023-05-07T14:18:16;23.08;;;21.40;;
45402;SDS011;47427;51.976;5.326;2023-05-07T14:21:39;21.90;;;20.13;;
45402;SDS011;47427;51.976;5.326;2023-05-07T14:25:02;21.58;;;19.98;;
45402;SDS011;47427;51.976;5.326;2023-05-07T14:28:23;22.73;;;20.83;;
45402;SDS011;47427;51.976;5.326;2023-05-07T14:31:46;22.98;;;20.90;;
45402;SDS011;47427;51.976;5.326;2023-05-07T14:35:09;23.20;;;21.48;;
45402;SDS011;47427;51.976;5.326;2023-05-07T14:38:31;22.30;;;20.70;;
45402;SDS011;47427;51.976;5.326;2023-05-07T14:41:54;21.83;;;20.35;;
45402;SDS011;47427;51.976;5.326;2023-05-07T14:45:20;23.17;;;21.25;;
45402;SDS011;47427;51.976;5.326;2023-05-07T14:49:01;22.05;;;20.55;;
45402;SDS011;47427;51.976;5.326;2023-05-07T14:52:23;23.55;;;21.70;;
45402;SDS011;47427;51.976;5.326;2023-05-07T14:55:45;22.45;;;20.73;;
45402;SDS011;47427;51.976;5.326;2023-05-07T14:59:09;24.90;;;22.95;;
45402;SDS011;47427;51.976;5.326;2023-05-07T15:02:31;24.25;;;22.42;;
45402;SDS011;47427;51.976;5.326;2023-05-07T15:05:53;23.30;;;21.45;;
45402;SDS011;47427;51.976;5.326;2023-05-07T15:09:17;25.25;;;23.15;;
45402;SDS011;47427;51.976;5.326;2023-05-07T15:12:38;23.08;;;21.45;;
45402;SDS011;47427;51.976;5.326;2023-05-07T15:16:01;23.35;;;21.45;;
45402;SDS011;47427;51.976;5.326;2023-05-07T15:19:24;23.45;;;21.65;;
45402;SDS011;47427;51.976;5.326;2023-05-07T15:22:49;24.38;;;21.80;;
45402;SDS011;47427;51.976;5.326;2023-05-07T15:26:12;22.55;;;20.85;;
45402;SDS011;47427;51.976;5.326;2023-05-07T15:29:33;23.67;;;21.88;;
45402;SDS011;47427;51.976;5.326;2023-05-07T15:32:58;24.75;;;22.80;;
45402;SDS011;47427;51.976;5.326;2023-05-07T15:36:20;24.63;;;22.50;;
45402;SDS011;47427;51.976;5.326;2023-05-07T15:39:42;24.27;;;22.00;;
45402;SDS011;47427;51.976;5.326;2023-05-07T15:43:05;23.27;;;21.40;;
45402;SDS011;47427;51.976;5.326;2023-05-07T15:46:28;23.88;;;21.48;;
45402;SDS011;47427;51.976;5.326;2023-05-07T15:49:49;23.27;;;21.63;;
45402;SDS011;47427;51.976;5.326;2023-05-07T15:53:12;20.88;;;18.98;;
45402;SDS011;47427;51.976;5.326;2023-05-07T15:56:35;21.17;;;19.70;;
45402;SDS011;47427;51.976;5.326;2023-05-07T15:59:57;21.77;;;20.27;;
45402;SDS011;47427;51.976;5.326;2023-05-07T16:03:20;22.50;;;20.90;;
45402;SDS011;47427;51.976;5.326;2023-05-07T16:06:43;25.83;;;23.50;;
45402;SDS011;47427;51.976;5.326;2023-05-07T16:10:08;26.83;;;23.97;;
45402;SDS011;47427;51.976;5.326;2023-05-07T16:13:31;25.02;;;22.95;;
45402;SDS011;47427;51.976;5.326;2023-05-07T16:16:54;24.73;;;22.45;;
45402;SDS011;47427;51.976;5.326;2023-05-07T16:20:17;23.80;;;21.80;;
45402;SDS011;47427;51.976;5.326;2023-05-07T16:23:39;23.40;;;21.33;;
45402;SDS011;47427;51.976;5.326;2023-05-07T16:27:02;22.50;;;20.55;;
45402;SDS011;47427;51.976;5.326;2023-05-07T16:30:25;22.08;;;20.63;;
45402;SDS011;47427;51.976;5.326;2023-05-07T16:33:46;22.42;;;20.75;;
45402;SDS011;47427;51.976;5.326;2023-05-07T16:37:30;22.73;;;20.83;;
45402;SDS011;47427;51.976;5.326;2023-05-07T16:40:53;21.60;;;20.10;;
45402;SDS011;47427;51.976;5.326;2023-05-07T16:44:16;22.00;;;20.05;;
45402;SDS011;47427;51.976;5.326;2023-05-07T16:47:39;22.45;;;20.70;;
45402;SDS011;47427;51.976;5.326;2023-05-07T16:51:00;20.90;;;19.50;;
45402;SDS011;47427;51.976;5.326;2023-05-07T16:54:24;21.08;;;19.77;;
45402;SDS011;47427;51.976;5.326;2023-05-07T16:57:47;21.50;;;19.92;;
45402;SDS011;47427;51.976;5.326;2023-05-07T17:01:08;23.02;;;19.65;;
45402;SDS011;47427;51.976;5.326;2023-05-07T17:04:33;21.67;;;19.95;;
45402;SDS011;47427;51.976;5.326;2023-05-07T17:07:54;20.30;;;19.00;;
45402;SDS011;47427;51.976;5.326;2023-05-07T17:11:18;21.08;;;19.40;;
45402;SDS011;47427;51.976;5.326;2023-05-07T17:14:40;20.20;;;18.58;;
45402;SDS011;47427;51.976;5.326;2023-05-07T17:18:02;20.20;;;18.80;;
45402;SDS011;47427;51.976;5.326;2023-05-07T17:21:25;19.75;;;18.27;;
45402;SDS011;47427;51.976;5.326;2023-05-07T17:24:48;20.42;;;18.73;;
45402;SDS011;47427;51.976;5.326;2023-05-07T17:28:12;20.23;;;18.73;;
45402;SDS011;47427;51.976;5.326;2023-05-07T17:31:35;21.70;;;19.42;;
45402;SDS011;47427;51.976;5.326;2023-05-07T17:34:57;20.50;;;19.08;;
45402;SDS011;47427;51.976;5.326;2023-05-07T17:38:19;21.10;;;19.60;;
45402;SDS011;47427;51.976;5.326;2023-05-07T17:41:42;20.20;;;18.80;;
45402;SDS011;47427;51.976;5.326;2023-05-07T17:45:04;21.60;;;20.20;;
45402;SDS011;47427;51.976;5.326;2023-05-07T17:48:27;21.73;;;20.23;;
45402;SDS011;47427;51.976;5.326;2023-05-07T17:51:50;23.10;;;20.65;;
45402;SDS011;47427;51.976;5.326;2023-05-07T17:55:12;21.45;;;20.05;;
45402;SDS011;47427;51.976;5.326;2023-05-07T17:58:35;21.05;;;19.70;;
45402;SDS011;47427;51.976;5.326;2023-05-07T18:01:57;22.25;;;20.65;;
45402;SDS011;47427;51.976;5.326;2023-05-07T18:05:20;22.30;;;20.52;;
45402;SDS011;47427;51.976;5.326;2023-05-07T18:08:42;22.58;;;20.70;;
45402;SDS011;47427;51.976;5.326;2023-05-07T18:12:05;23.55;;;21.75;;
45402;SDS011;47427;51.976;5.326;2023-05-07T18:15:28;21.70;;;20.15;;
45402;SDS011;47427;51.976;5.326;2023-05-07T18:18:50;23.17;;;21.15;;
45402;SDS011;47427;51.976;5.326;2023-05-07T18:22:12;22.17;;;20.60;;
45402;SDS011;47427;51.976;5.326;2023-05-07T18:25:35;21.40;;;19.80;;
45402;SDS011;47427;51.976;5.326;2023-05-07T18:28:56;21.55;;;20.02;;
45402;SDS011;47427;51.976;5.326;2023-05-07T18:32:19;21.08;;;19.88;;
45402;SDS011;47427;51.976;5.326;2023-05-07T18:35:42;21.20;;;19.83;;
45402;SDS011;47427;51.976;5.326;2023-05-07T18:39:05;21.58;;;19.65;;
45402;SDS011;47427;51.976;5.326;2023-05-07T18:42:29;22.50;;;20.38;;
45402;SDS011;47427;51.976;5.326;2023-05-07T18:45:52;22.33;;;20.45;;
45402;SDS011;47427;51.976;5.326;2023-05-07T18:49:14;22.15;;;20.75;;
45402;SDS011;47427;51.976;5.326;2023-05-07T18:52:37;22.02;;;20.63;;
45402;SDS011;47427;51.976;5.326;2023-05-07T18:55:59;22.25;;;20.77;;
45402;SDS011;47427;51.976;5.326;2023-05-07T18:59:22;22.13;;;20.67;;
45402;SDS011;47427;51.976;5.326;2023-05-07T19:02:45;23.75;;;21.92;;
45402;SDS011;47427;51.976;5.326;2023-05-07T19:06:06;24.70;;;22.10;;
45402;SDS011;47427;51.976;5.326;2023-05-07T19:09:29;35.47;;;24.52;;
45402;SDS011;47427;51.976;5.326;2023-05-07T19:12:52;25.48;;;23.13;;
45402;SDS011;47427;51.976;5.326;2023-05-07T19:16:15;24.85;;;22.55;;
45402;SDS011;47427;51.976;5.326;2023-05-07T19:19:56;23.10;;;21.52;;
45402;SDS011;47427;51.976;5.326;2023-05-07T19:23:19;25.98;;;23.73;;
45402;SDS011;47427;51.976;5.326;2023-05-07T19:26:41;26.92;;;24.63;;
45402;SDS011;47427;51.976;5.326;2023-05-07T19:30:05;24.73;;;22.50;;
45402;SDS011;47427;51.976;5.326;2023-05-07T19:33:28;23.95;;;21.70;;
45402;SDS011;47427;51.976;5.326;2023-05-07T19:36:51;22.85;;;21.25;;
45402;SDS011;47427;51.976;5.326;2023-05-07T19:40:12;23.17;;;21.77;;
45402;SDS011;47427;51.976;5.326;2023-05-07T19:43:35;23.27;;;21.60;;
45402;SDS011;47427;51.976;5.326;2023-05-07T19:46:59;22.42;;;21.02;;
45402;SDS011;47427;51.976;5.326;2023-05-07T19:50:21;23.73;;;21.98;;
45402;SDS011;47427;51.976;5.326;2023-05-07T19:53:44;25.58;;;23.48;;
45402;SDS011;47427;51.976;5.326;2023-05-07T19:57:07;24.25;;;22.50;;
45402;SDS011;47427;51.976;5.326;2023-05-07T20:00:28;27.92;;;24.08;;
45402;SDS011;47427;51.976;5.326;2023-05-07T20:03:53;24.40;;;22.40;;
45402;SDS011;47427;51.976;5.326;2023-05-07T20:07:16;22.77;;;21.45;;
45402;SDS011;47427;51.976;5.326;2023-05-07T20:10:37;24.13;;;21.98;;
45402;SDS011;47427;51.976;5.326;2023-05-07T20:14:00;27.52;;;21.90;;
45402;SDS011;47427;51.976;5.326;2023-05-07T20:17:24;30.20;;;22.58;;
45402;SDS011;47427;51.976;5.326;2023-05-07T20:20:46;23.05;;;21.42;;